Whitleys Peak, Santa Catalina Island Weather observations

Data are for 10 minute period ending at time listed.
 Day   Time   Solar   Ave.   Ave.  Ave.  Vector    Max.   Stn.    Total
  of    of     Rad.   Air    Rel.  Wind   Wind     Wind   Baro.  Precip.
Year   Day            Temp.  Hum.  Speed  Dir.     Gust   Pres.         
2016   (PST)   W/m2    F      %     mph   deg.      mph    mb.     in.  
------------------------------------------------------------------------
 270    0:40    0.0    82   14.8     4    126.3     8.4    999.0   0.00  
 270    0:50    0.0    82   14.9     5    118.0     9.6    999.0   0.00  
 270    1:00    0.0    81   15.8     4    125.1     6.0    999.0   0.00  
 270    1:10    0.0    81   16.4     4    129.8     6.6    999.0   0.00  
 270    1:20    0.0    81   16.7     6    108.9    10.8    999.0   0.00  
 270    1:30    0.0    80   18.0     6    123.0    10.8    999.0   0.00  
 270    1:40    0.0    80   18.4     6    129.0    11.3    999.0   0.00  
 270    1:50    0.0    80   18.1     6    127.7    10.2    999.0   0.00  
 270    2:00    0.0    82   15.7    12    118.1    17.3    999.0   0.00  
 270    2:10    0.0    82   14.9     8    122.0    13.1    999.0   0.00  
 270    2:20    0.0    82   14.7     6    125.1    10.8    999.0   0.00  
 270    2:30    0.0    82   14.6     6    130.1    10.8    999.0   0.00  
 270    2:40    0.0    82   14.7     8    118.4    10.8    999.0   0.00  
 270    2:50    0.0    82   14.9     8    120.7    10.8    999.0   0.00  
 270    3:00    0.0    82   15.0     8    117.3    10.2    999.0   0.00  
 270    3:10    0.0    82   15.0     7    116.1    10.2    999.0   0.00  
 270    3:20    0.0    82   15.1     6    115.7     8.4    999.0   0.00  
 270    3:30    0.0    82   15.1     7    105.3     8.4    999.0   0.00  
 270    3:40    0.0    83   14.8     7     97.6     9.6    999.0   0.00  
 270    3:50    0.0    83   14.6     9     78.6    10.8    999.0   0.00  
 270    4:00    0.0    84   14.5     9     68.8    10.8    999.0   0.00  
 270    4:10    0.0    84   14.3     8     61.7    10.8    999.0   0.00  
 270    4:20    0.0    84   14.3     8     46.2     9.0    999.0   0.00  
 270    4:30    0.0    84   14.0     8     37.1     9.6    999.0   0.00  
 270    4:40    0.0    84   14.0     8     33.9     9.0    999.0   0.00  
 270    4:50    0.0    84   13.7     8     32.5     8.4    999.0   0.00  
 270    5:00    0.0    84   13.2     8     31.8    10.2    999.0   0.00  
 270    5:10    0.0    84   13.1     7     24.5     9.0    999.0   0.00  
 270    5:20    0.0    84   13.2     6      8.6     8.4    999.0   0.00  
 270    5:30    0.0    84   13.2     5      0.2     7.2    999.0   0.00  
 270    5:40    0.0    84   13.6     7     42.0    13.1    999.0   0.00  
 270    5:50    1.0    85   13.6    10     50.4    13.7    999.0   0.00  
 270    6:00    6.0    84   13.7     9     49.7    10.8    999.0   0.00  
 270    6:10   12.0    84   13.9     8     61.3    10.2    999.0   0.00  
 270    6:20   28.0    85   13.7     7     56.9     7.8    999.0   0.00  
 270    6:30   50.0    85   12.9     5     47.5     6.6    999.0   0.00  
 270    6:40   82.0    86   12.3     3     57.7     8.4    999.0   0.00  
 270    6:50  114.0    88   13.0     9     72.8    12.5    999.0   0.00  
 270    7:00  141.0    88   12.6     6     81.8     9.6    999.0   0.00  
 270    7:10  171.0    89   12.3     4     57.6     6.6    999.0   0.00  
 270    7:20  201.0    89   12.6     4     47.4     7.8    999.0   0.00  
 270    7:30  232.0    88   12.7     5     42.8     7.2    999.0   0.00  
 270    7:40  263.0    89   12.5     3     30.3     5.4    999.0   0.00  
 270    7:50  294.0    88   12.5     3     30.6     4.8    999.0   0.00  
 270    8:00  325.0    89   12.7     4     32.6     5.4    999.0   0.00  
 270    8:10  354.0    89   12.7     4     38.0     6.6    999.0   0.00  
 270    8:20  383.0    89   12.9     4     29.1     4.8    999.0   0.00  
 270    8:30  412.0    88   13.0     5     35.9     6.6    999.0   0.00  
 270    8:40  441.0    87   13.6     6     31.6     8.4    999.0   0.00  
 270    8:50  468.0    87   13.6     6     32.6     7.8    999.0   0.00  
 270    9:00  495.0    88   13.4     5     32.0     7.2    999.0   0.00  
 270    9:10  521.0    89   13.2     4     27.4     6.0    999.0   0.00  
 270    9:20  545.0    90   12.9     4     26.5     6.0    999.0   0.00  
 270    9:30  569.0    91   12.9     4     27.9     6.0    999.0   0.00  
 270    9:40  591.0    92   12.7     5     40.9     7.8    999.0   0.00  
 270    9:50  614.0    94   12.4     5     59.1     8.4    999.0   0.00  
 270   10:00  633.0    94   12.4     7     71.2     9.0    999.0   0.00  
 270   10:10  652.0    94   12.4     6     69.4     8.4    999.0   0.00  
 270   10:20  669.0    94   12.7     7     62.2     9.6    999.0   0.00  
 270   10:30  686.0    92   12.8     7     39.1     9.0    999.0   0.00  
 270   10:40  700.0    94   12.3     6     47.1     9.0    999.0   0.00  
 270   10:50  713.0    94   12.2     6     48.7     8.4    999.0   0.00  
 270   11:00  724.0    94   12.3     7     40.4     9.6    999.0   0.00  
 270   11:10  733.0    94   12.2     7     51.9     9.6    999.0   0.00  
 270   11:20  741.0    95   11.9     8     60.4    10.2    999.0   0.00  
 270   11:30  747.0    95   12.1     8     66.8    10.2    999.0   0.00  
 270   11:40  751.0    94   12.2     7     70.0    10.8    999.0   0.00  
 270   11:50  754.0    95   12.1     7     71.6    10.2    999.0   0.00  
 270   12:00  756.0    95   11.9     6     66.8    10.2    999.0   0.00  
 270   12:10  755.0    94   12.1     6     56.6    10.8    999.0   0.00  
 270   12:20  753.0    94   12.4     6     67.8    10.8    999.0   0.00  
 270   12:30  751.0    94   12.3     7    101.5    11.3    999.0   0.00  
 270   12:40  748.0    94   12.4     7     76.2    13.1    999.0   0.00  
 270   12:50  746.0    95   12.0     6     85.7     9.0    999.0   0.00  
 270   13:00  722.0    95   12.0     6     55.2     9.6    999.0   0.00  
 270   13:10  731.0    95   12.2     6     47.7     9.6    999.0   0.00  
 270   13:20  738.0    95   12.1     5     75.1     9.0    999.0   0.00  
 270   13:30  756.0    96   11.8     7     89.0    11.3    999.0   0.00  
 270   13:40  757.0    95   12.3     7     85.6     9.6    999.0   0.00  
 270   13:50  674.0    98   11.2     4     98.8     9.0    999.0   0.00  
 270   14:00  497.0    96   11.6     4    119.5     7.2    999.0   0.00  
 270   14:10  471.0    94   12.7    10    101.5    13.1    999.0   0.00  
 270   14:20  417.0    93   13.3     5     99.5    10.8    999.0   0.00  
 270   14:30  706.0    96   12.3     4    124.0    12.5    999.0   0.00  
 270   14:40  575.0    97   11.8     4    198.2     8.4    999.0   0.00  
 270   14:50  290.0    94   13.3     4    163.4    10.2    999.0   0.00  
 270   15:00  294.0    92   14.3     3    116.5     4.8    999.0   0.00  
 270   15:10  232.0    92   14.4     6    117.2    12.5    999.0   0.00  
 270   15:20  211.0    91   14.2     7    118.3    14.9    999.0   0.00  
 270   15:30  198.0    91   14.3     6    120.4    12.5    999.0   0.00  
 270   15:40  189.0    91   14.2     4    134.7     9.6    999.0   0.00  
 270   15:50  169.0    91   14.1     4    179.7     9.0    999.0   0.00  
 270   16:00  144.0    91   14.4     6    213.5     9.0    999.0   0.00  
 270   16:10  125.0    90   14.6     5    211.5     7.8    999.0   0.00  
 270   16:20  113.0    90   14.6     4    215.0     6.6    999.0   0.00  
 270   16:30   96.0    90   14.9     6    224.6     8.4    999.0   0.00  
 270   16:40   79.0    89   15.2     8    222.6    10.8    999.0   0.00  
 270   16:50   70.0    88   15.4     9    218.9    11.9    999.0   0.00  
 270   17:00   78.0    88   15.5    10    213.8    11.3    999.0   0.00  
 270   17:10   86.0    88   15.5    10    217.2    11.3    999.0   0.00  
 270   17:20   82.0    88   15.5    10    215.1    11.9    999.0   0.00  
 270   17:30   64.0    88   15.6     9    210.1    11.3    999.0   0.00  
 270   17:40   37.0    87   15.7    11    212.2    12.5    999.0   0.00  
 270   17:50   15.0    86   16.0    12    209.9    13.7    999.0   0.00  
 270   18:00    7.0    85   16.2    11    208.7    13.1    999.0   0.00  
 270   18:10    0.0    85   16.3    11    212.7    11.9    999.0   0.00  
 270   18:20    0.0    85   16.4    13    217.1    14.3    999.0   0.00  
 270   18:30    0.0    85   16.6    13    218.5    14.9    999.0   0.00  
 270   18:40    0.0    85   16.7    13    219.0    14.9    999.0   0.00  
 270   18:50    0.0    85   16.7    14    216.6    16.1    999.0   0.00  
 270   19:00    0.0    85   16.7    14    219.8    16.7    999.0   0.00  
 270   19:10    0.0    85   16.7    13    218.8    14.3    999.0   0.00  
 270   19:20    0.0    85   16.6    13    220.8    13.7    999.0   0.00  
 270   19:30    0.0    85   16.6    12    224.3    14.3    999.0   0.00  
 270   19:40    0.0    85   16.6    12    225.5    14.3    999.0   0.00  
 270   19:50    0.0    85   16.9    11    232.5    13.7    999.0   0.00  
 270   20:00    0.0    85   16.8    11    222.2    13.7    999.0   0.00  
 270   20:10    0.0    83   17.3    10    210.4    12.5    999.0   0.00  
 270   20:20    0.0    83   17.6    10    217.5    12.5    999.0   0.00  
 270   20:30    0.0    83   17.1    11    230.9    14.9    999.0   0.00  
 270   20:40    0.0    84   16.8    10    228.0    14.9    999.0   0.00  
 270   20:50    0.0    84   17.0     9    237.0    13.1    999.0   0.00  
 270   21:00    0.0    84   16.9    10    246.8    16.7    999.0   0.00  
 270   21:10    0.0    84   17.0     9    260.9    14.3    999.0   0.00  
 270   21:20    0.0    85   16.3    10    253.4    13.7    999.0   0.00  
 270   21:30    0.0    84   16.4    11    253.9    14.9    999.0   0.00  
 270   21:40    0.0    85   16.1    11    255.0    16.1    999.0   0.00  
 270   21:50    0.0    85   15.7    12    264.1    17.3    999.0   0.00  
 270   22:00    0.0    85   15.1    13    266.5    16.7    999.0   0.00  
 270   22:10    0.0    85   14.9    14    269.0    17.3    999.0   0.00  
 270   22:20    0.0    85   14.7    14    264.8    18.5    999.0   0.00  
 270   22:30    0.0    85   14.6    16    264.4    18.5    999.0   0.00  
 270   22:40    0.0    86   14.4    15    264.5    18.5    999.0   0.00  
 270   22:50    0.0    86   14.1    13    266.2    15.5    999.0   0.00  
 270   23:00    0.0    86   14.2    10    262.9    13.7    999.0   0.00  
 270   23:10    0.0    86   14.1    10    256.9    14.3    999.0   0.00  
 270   23:20    0.0    86   14.2    12    257.0    16.7    999.0   0.00  
 270   23:30    0.0    87   14.5    15    258.0    19.7    999.0   0.00  
 270   23:40    0.0    86   14.9    15    256.2    17.9    999.0   0.00  
 270   23:50    0.0    87   14.5    14    257.5    17.3    999.0   0.00  
 271    0:00    0.0    86   14.5    10    248.1    14.3    999.0   0.00  
 271    0:10    0.0    87   14.2     6    220.4    11.9    999.0   0.00  
 271    0:20    0.0    85   15.2     4    285.9     6.0    999.0   0.00  
 271    0:30    0.0    86   14.2     8    254.7    10.8    999.0   0.00  

Return to Whitleys Peak graphs page.


Western Regional Climate Center,wrcc@dri.edu